Latest Weather Observations for Middle Point

IDD60901

Issued at 9:15 pm CST Thursday 18 September 2014 (issued every 10 minutes, with the page automatically refreshed every 10 minutes)

About weather observations | Map of Darwin area stations | Latest observations for Darwin area | Other Formats
Station Details ID: 014041 Name: MIDDLE POINT Lat: -12.61 Lon: 131.30 Height: 14.1 m
Data from the previous 72 hours. | See also: Recent months at Middle Point
Date/Time
CST
Tmp

°C
App
Tmp
°C
Dew
Point
°C
Rel
Hum
%
Delta-T

°C
Wind Press
QNH
hPa
Press
MSL
hPa
Rain
since
9 am
mm
Dir
 
Spd
km/h
Gust
km/h
Spd
kts
Gust
kts
18/09:00pm 23.2 23.8 15.3 61 4.7 W 6 7 3 4 1014.0 1013.9 0.0
18/08:30pm 23.8 24.4 15.3 59 5.1 WNW 6 7 3 4 1013.7 1013.6 0.0
18/08:00pm 24.5 24.7 14.6 54 5.9 NW 7 9 4 5 1013.2 1013.1 0.0
18/07:30pm 25.6 25.9 15.0 52 6.4 NNW 7 9 4 5 1012.8 1012.7 0.0
18/07:00pm 27.1 26.9 14.8 47 7.4 NNW 9 11 5 6 1012.3 1012.2 0.0
18/06:30pm 29.3 27.4 14.3 40 9.1 N 17 24 9 13 1011.9 1011.8 0.0
18/06:00pm 31.0 27.4 14.2 36 10.2 N 26 35 14 19 1011.1 1011.0 0.0
18/05:39pm 32.7 26.7 10.7 26 12.7 N 33 43 18 23 1010.4 1010.4 0.0
18/05:30pm 34.7 32.6 9.9 22 14.3 NE 11 19 6 10 1010.2 1010.2 0.0
18/05:00pm 36.8 32.2 3.9 13 17.5 ESE 17 24 9 13 1010.0 1010.0 0.0
18/04:30pm 36.8 31.7 3.9 13 17.5 SE 20 30 11 16 1010.1 1010.1 0.0
18/04:00pm 37.0 31.5 4.0 13 17.6 ESE 22 33 12 18 1010.4 1010.4 0.0
18/03:30pm 37.5 32.5 4.4 13 17.8 ESE 20 28 11 15 1010.7 1010.7 0.0
18/03:00pm 37.2 31.5 3.1 12 17.9 ESE 22 32 12 17 1011.3 1011.2 0.0
18/02:30pm 37.9 32.7 3.6 12 18.3 SE 20 30 11 16 1011.7 1011.6 0.0
18/02:00pm 37.3 30.3 4.3 13 17.7 E 30 39 16 21 1012.3 1012.2 0.0
18/01:30pm 36.2 31.6 5.5 15 16.7 ESE 19 32 10 17 1013.0 1012.9 0.0
18/01:00pm 36.1 31.8 8.0 18 15.8 ESE 20 32 11 17 1013.8 1013.7 0.0
18/12:30pm 35.2 31.0 9.6 21 14.7 E 22 33 12 18 1014.5 1014.4 0.0
18/12:00pm 34.2 31.0 10.1 23 13.9 E 17 30 9 16 1015.3 1015.2 0.0
18/11:30am 34.3 31.9 11.4 25 13.5 ESE 15 28 8 15 1015.9 1015.8 0.0
18/11:00am 32.4 30.9 14.1 33 11.1 SE 15 26 8 14 1016.3 1016.2 0.0
18/10:30am 31.4 32.1 16.2 40 9.5 SE 7 13 4 7 1016.6 1016.5 0.0
18/10:00am 29.9 30.3 16.3 43 8.5 S 9 19 5 10 1016.7 1016.6 0.0
18/09:30am 28.4 29.9 17.6 52 6.8 SE 6 11 3 6 1016.7 1016.6 0.0
18/09:00am 27.9 30.4 19.1 58 5.7 SSE 4 7 2 4 1016.7 1016.6 0.0
18/08:30am 25.4 28.6 20.4 74 3.3 S 4 4 2 2 1016.5 1016.4 0.0
18/08:00am 23.0 27.1 20.7 87 1.5 CALM 0 0 0 0 1016.2 1016.1 0.0
18/07:30am 20.3 23.8 19.5 95 0.5 CALM 0 2 0 1 1015.9 1015.8 0.0
18/07:00am 17.2 19.3 16.2 94 0.6 CALM 0 0 0 0 1015.5 1015.4 0.0
18/06:30am 16.7 18.5 15.6 93 0.6 CALM 0 0 0 0 1014.9 1014.8 0.0
18/06:00am 17.1 19.0 15.8 92 0.8 CALM 0 0 0 0 1014.5 1014.4 0.0
18/05:30am 17.5 19.6 16.2 92 0.8 CALM 0 0 0 0 1014.3 1014.2 0.0
18/05:00am 17.5 19.4 15.7 89 1.1 CALM 0 0 0 0 1014.2 1014.1 0.0
18/04:30am 18.2 20.3 16.2 88 1.2 CALM 0 2 0 1 1014.1 1014.0 0.0
18/04:00am 18.7 21.0 16.7 88 1.2 CALM 0 0 0 0 1014.0 1013.9 0.0
18/03:30am 18.8 21.1 16.8 88 1.2 CALM 0 2 0 1 1014.0 1013.9 0.0
18/03:00am 19.4 21.9 17.2 87 1.3 CALM 0 0 0 0 1014.0 1013.9 0.0
18/02:30am 20.6 23.5 18.2 86 1.5 CALM 0 0 0 0 1014.3 1014.2 0.0
18/02:00am 20.8 23.8 18.4 86 1.5 CALM 0 0 0 0 1014.5 1014.4 0.0
18/01:30am 20.8 23.2 18.0 84 1.7 N 2 2 1 1 1014.7 1014.6 0.0
18/01:00am 21.1 23.1 17.9 82 2.0 N 4 4 2 2 1015.2 1015.1 0.0
18/12:30am 22.8 25.6 19.6 82 2.0 N 4 6 2 3 1015.5 1015.4 0.0
18/12:00am 22.8 24.9 19.4 81 2.2 N 7 7 4 4 1015.6 1015.5 0.0
 
Date/Time
CST
Tmp

°C
App
Tmp
°C
Dew
Point
°C
Rel
Hum
%
Delta-T

°C
Wind Press
QNH
hPa
Press
MSL
hPa
Rain
since
9 am
mm
Dir
 
Spd
km/h
Gust
km/h
Spd
kts
Gust
kts
17/11:30pm 23.7 26.0 19.8 79 2.5 N 7 11 4 6 1015.6 1015.5 0.0
17/11:00pm 24.2 26.1 20.5 80 2.4 N 11 13 6 7 1015.3 1015.2 0.0
17/10:30pm 23.2 25.6 20.0 82 2.1 N 7 9 4 5 1014.9 1014.8 0.0
17/10:00pm 23.5 25.6 19.4 78 2.6 N 7 7 4 4 1014.8 1014.7 0.0
17/09:30pm 24.1 26.7 19.2 74 3.1 N 4 6 2 3 1014.6 1014.5 0.0
17/09:00pm 24.7 26.6 18.6 69 3.9 N 6 7 3 4 1014.1 1014.0 0.0
17/08:30pm 25.1 26.4 17.6 63 4.7 N 7 9 4 5 1013.7 1013.6 0.0
17/08:00pm 26.6 26.9 17.1 56 5.9 N 11 15 6 8 1013.1 1013.0 0.0
17/07:30pm 27.8 27.0 16.1 49 7.2 N 15 20 8 11 1012.3 1012.2 0.0
17/07:00pm 27.7 27.5 15.7 48 7.4 N 11 17 6 9 1011.7 1011.6 0.0
17/06:30pm 29.9 28.9 15.6 42 8.8 N 15 28 8 15 1010.7 1010.7 0.0
17/06:00pm 32.6 31.9 13.3 31 11.6 N 9 11 5 6 1010.1 1010.1 0.0
17/05:30pm 33.5 32.1 13.5 29 12.1 N 13 15 7 8 1009.8 1009.7 0.0
17/05:00pm 34.1 32.6 13.0 28 12.7 N 13 19 7 10 1009.6 1009.5 0.0
17/04:30pm 34.9 32.8 13.7 28 13.0 N 17 24 9 13 1009.5 1009.4 0.0
17/04:00pm 35.1 34.1 13.3 27 13.3 N 11 22 6 12 1009.6 1009.5 0.0
17/03:30pm 37.1 34.7 8.8 18 16.2 SSE 11 24 6 13 1009.8 1009.7 0.0
17/03:00pm 37.4 33.2 8.2 17 16.6 ESE 20 32 11 17 1010.2 1010.2 0.0
17/02:30pm 37.1 33.0 8.8 18 16.2 E 20 33 11 18 1010.5 1010.5 0.0
17/02:00pm 36.5 33.9 9.2 19 15.7 SE 13 28 7 15 1011.1 1011.0 0.0
17/01:30pm 36.2 32.0 9.7 20 15.3 E 22 30 12 16 1011.6 1011.5 0.0
17/01:00pm 35.4 30.8 9.7 21 14.8 ENE 24 33 13 18 1012.1 1012.0 0.0
17/12:30pm 35.2 31.7 10.9 23 14.3 ESE 20 30 11 16 1013.1 1013.0 0.0
17/12:00pm 34.4 32.2 12.1 26 13.3 ESE 15 26 8 14 1013.5 1013.4 0.0
17/11:30am 33.8 30.9 11.0 25 13.3 E 17 26 9 14 1013.9 1013.8 0.0
17/11:00am 33.5 31.2 13.0 29 12.3 ENE 17 26 9 14 1014.4 1014.3 0.0
17/10:30am 31.4 29.9 13.2 33 10.9 E 13 20 7 11 1014.7 1014.6 0.0
17/10:00am 30.3 30.4 15.6 41 9.1 ENE 9 15 5 8 1015.0 1014.9 0.0
17/09:30am 29.5 31.0 17.7 49 7.5 E 6 11 3 6 1014.9 1014.8 0.0
17/09:00am 28.7 30.8 18.2 53 6.7 ESE 4 11 2 6 1014.7 1014.6 0.0
17/08:30am 26.1 29.2 20.2 70 3.8 S 4 7 2 4 1014.6 1014.5 0.0
17/08:00am 23.3 26.5 20.4 84 1.9 S 4 6 2 3 1014.3 1014.2 0.0
17/07:30am 21.4 23.9 19.9 91 1.0 S 6 9 3 5 1013.9 1013.8 0.0
17/07:00am 20.5 23.2 19.5 94 0.6 NE 4 9 2 5 1013.6 1013.5 0.0
17/06:30am 19.0 21.2 17.5 91 0.9 ENE 2 6 1 3 1013.4 1013.3 0.0
17/06:00am 20.4 23.2 19.6 95 0.5 E 4 13 2 7 1013.1 1013.0 0.0
17/05:30am 18.3 19.9 17.0 92 0.8 S 4 6 2 3 1012.7 1012.6 0.0
17/05:00am 17.5 19.4 15.8 90 1.0 CALM 0 0 0 0 1012.4 1012.3 0.0
17/04:30am 18.0 20.1 16.2 89 1.1 CALM 0 0 0 0 1012.2 1012.1 0.0
17/04:00am 19.0 21.4 17.0 88 1.2 CALM 0 0 0 0 1011.9 1011.8 0.0
17/03:30am 18.9 20.6 16.3 85 1.6 NNE 2 4 1 2 1012.1 1012.0 0.0
17/03:00am 20.0 22.3 17.6 86 1.5 ENE 2 4 1 2 1012.3 1012.2 0.0
17/02:30am 20.0 22.5 17.2 84 1.7 CALM 0 0 0 0 1012.4 1012.3 0.0
17/02:00am 20.3 22.8 17.3 83 1.8 CALM 0 0 0 0 1012.7 1012.6 0.0
17/01:30am 20.4 23.1 17.8 85 1.6 CALM 0 4 0 2 1012.8 1012.7 0.0
17/01:00am 20.6 23.0 18.0 85 1.6 ENE 2 4 1 2 1013.1 1013.0 0.0
17/12:30am 20.1 21.9 16.5 80 2.2 NNW 2 4 1 2 1013.2 1013.1 0.0
17/12:00am 21.1 23.7 17.5 80 2.2 CALM 0 0 0 0 1013.2 1013.1 0.0
 
Date/Time
CST
Tmp

°C
App
Tmp
°C
Dew
Point
°C
Rel
Hum
%
Delta-T

°C
Wind Press
QNH
hPa
Press
MSL
hPa
Rain
since
9 am
mm
Dir
 
Spd
km/h
Gust
km/h
Spd
kts
Gust
kts
16/11:30pm 21.2 23.6 17.0 77 2.6 CALM 0 0 0 0 1013.2 1013.1 0.0
16/11:00pm 22.0 24.6 17.4 75 2.8 CALM 0 0 0 0 1013.0 1012.9 0.0
16/10:30pm 21.9 24.0 17.1 74 2.9 NW 2 4 1 2 1012.9 1012.8 0.0
16/10:00pm 22.9 24.7 17.4 71 3.4 WNW 4 6 2 3 1012.7 1012.6 0.0
16/09:30pm 23.4 25.2 17.4 69 3.7 NW 4 6 2 3 1012.4 1012.3 0.0
16/09:00pm 25.0 26.2 18.2 66 4.3 N 9 13 5 7 1011.7 1011.6 0.0
16/08:30pm 24.4 24.5 16.6 61 4.8 NNE 11 13 6 7 1011.2 1011.1 0.0
16/08:00pm 24.9 25.8 16.1 58 5.4 N 6 7 3 4 1010.7 1010.7 0.0
16/07:30pm 26.5 26.7 15.8 51 6.5 N 9 11 5 6 1010.4 1010.4 0.0
16/07:00pm 28.1 27.7 16.1 48 7.4 N 13 17 7 9 1009.8 1009.7 0.0
16/06:30pm 29.3 29.2 16.1 44 8.2 N 11 17 6 9 1009.6 1009.5 0.0
16/06:00pm 30.8 29.4 15.6 39 9.4 N 17 20 9 11 1009.4 1009.3 0.0
16/05:30pm 32.1 30.7 15.6 37 10.3 N 17 20 9 11 1009.2 1009.1 0.0
16/05:00pm 32.8 31.9 15.8 36 10.6 N 15 22 8 12 1009.3 1009.2 0.0
16/04:30pm 33.6 32.2 15.6 34 11.3 N 17 24 9 13 1009.3 1009.2 0.0
16/04:00pm 33.4 31.4 14.9 32 11.4 N 19 30 10 16 1009.4 1009.3 0.0
16/03:30pm 33.6 31.3 14.6 31 11.7 N 20 28 11 15 1009.5 1009.4 0.0
16/03:00pm 33.9 31.5 13.9 30 12.2 N 19 26 10 14 1009.8 1009.7 0.0
16/02:30pm 33.9 31.5 13.9 30 12.2 N 19 26 10 14 1010.0 1010.0 0.0
16/02:00pm 33.7 33.4 13.2 29 12.4 NE 7 13 4 7 1010.4 1010.4 0.0
16/01:30pm 34.0 33.4 13.5 29 12.5 SE 9 19 5 10 1011.0 1010.9 0.0
16/01:00pm 33.5 32.3 14.0 30 11.9 ENE 13 20 7 11 1011.6 1011.5 0.0
16/12:30pm 33.6 31.7 14.1 30 11.9 ESE 17 24 9 13 1012.2 1012.1 0.0
16/12:00pm 32.3 30.7 14.0 33 11.1 NNE 15 28 8 15 1012.9 1012.8 0.0
16/11:30am 32.7 31.4 13.8 31 11.5 NE 13 22 7 12 1013.3 1013.2 0.0
16/11:00am 31.3 31.6 16.1 40 9.5 ENE 9 19 5 10 1013.8 1013.7 0.0
16/10:30am 29.7 29.9 15.8 43 8.6 NNE 9 17 5 9 1014.2 1014.1 0.0
16/10:00am 29.3 31.4 19.3 55 6.5 NNE 7 11 4 6 1014.2 1014.1 0.0
16/09:30am 28.6 30.4 19.5 58 5.9 NNW 9 13 5 7 1014.2 1014.1 0.0
16/09:00am 27.6 30.4 20.4 65 4.7 NNW 6 11 3 6 1014.1 1014.0 0.0
16/08:30am 26.2 30.1 21.2 74 3.3 NW 2 4 1 2 1013.9 1013.8 0.0
16/08:00am 24.0 28.3 21.1 84 1.9 CALM 0 0 0 0 1013.6 1013.5 0.0
16/07:30am 21.3 25.0 19.9 92 0.9 CALM 0 0 0 0 1013.2 1013.1 0.0
16/07:00am 18.4 20.4 16.9 91 0.9 NNW 2 4 1 2 1012.7 1012.6 0.0
16/06:30am 18.0 19.3 16.2 89 1.1 NNW 4 6 2 3 1012.4 1012.3 0.0
16/06:00am 18.0 19.7 16.3 90 1.0 NNW 2 4 1 2 1012.2 1012.1 0.0
16/05:30am 18.0 19.3 16.2 89 1.1 NNW 4 4 2 2 1012.0 1011.9 0.0
16/05:00am 18.1 19.9 16.4 90 1.0 N 2 4 1 2 1011.9 1011.8 0.0
16/04:30am 18.3 20.5 16.6 90 1.0 CALM 0 0 0 0 1011.7 1011.6 0.0
16/04:00am 18.3 20.3 16.1 87 1.3 CALM 0 0 0 0 1011.6 1011.5 0.0
16/03:30am 19.1 21.2 16.3 84 1.7 CALM 0 0 0 0 1011.7 1011.6 0.0
16/03:00am 20.1 22.3 17.5 85 1.6 ENE 2 4 1 2 1011.7 1011.6 0.0
16/02:30am 19.8 21.5 17.2 85 1.6 E 4 6 2 3 1011.8 1011.7 0.0
16/02:00am 20.1 21.8 17.1 83 1.8 N 4 4 2 2 1011.9 1011.8 0.0
16/01:30am 20.4 23.0 17.6 84 1.7 CALM 0 0 0 0 1012.0 1011.9 0.0
16/01:00am 20.1 22.5 17.1 83 1.8 CALM 0 0 0 0 1012.1 1012.0 0.0
16/12:30am 20.4 22.0 17.0 81 2.1 NNE 4 6 2 3 1012.4 1012.3 0.0
16/12:00am 20.2 22.5 16.8 81 2.1 CALM 0 2 0 1 1012.4 1012.3 0.0
 
Date/Time
CST
Tmp

°C
App
Tmp
°C
Dew
Point
°C
Rel
Hum
%
Delta-T

°C
Wind Press
QNH
hPa
Press
MSL
hPa
Rain
since
9 am
mm
Dir
 
Spd
km/h
Gust
km/h
Spd
kts
Gust
kts
15/11:30pm 20.6 22.1 16.6 78 2.4 NNE 4 6 2 3 1012.3 1012.2 0.0
15/11:00pm 21.2 23.0 17.4 79 2.3 N 4 4 2 2 1012.2 1012.1 0.0
15/10:30pm 21.8 24.1 17.6 77 2.6 WNW 2 4 1 2 1012.1 1012.0 0.0
15/10:00pm 22.1 23.6 17.5 75 2.8 W 6 6 3 3 1012.0 1011.9 0.0
15/09:30pm 23.1 24.5 17.3 70 3.6 W 6 7 3 4 1011.8 1011.7 0.0

Latest Capital City Observations: Canberra | Sydney | Melbourne | Brisbane | Adelaide | Perth | Hobart | Darwin

Other Formats:

Comma delimited format used in spreadsheet applications
http://www.bom.gov.au/fwo/IDD60901/IDD60901.95121.axf

JavaScript Object Notation format (JSON) in row-major order
http://www.bom.gov.au/fwo/IDD60901/IDD60901.95121.json